Time;durP1;ratioP1;P1;durP2;ratioP2;P2;SDS_P1;SDS_P2;PMS_P1;PMS_P2;Temp;Humidity;BMP_temperature;BMP_pressure;BME280_temperature;BME280_humidity;BME280_pressure;Samples;Min_cycle;Max_cycle;Signal;HPM_P1;HPM_P2
2022/01/12 00:01:05;;;;;;;3.10;2.10;;;;;;;11.64;100.00;101800.53;4973960;28;20489;-84
2022/01/12 00:03:35;;;;;;;5.20;1.95;;;;;;;11.65;100.00;101798.84;4972405;28;20055;-79
2022/01/12 00:06:05;;;;;;;3.25;2.08;;;;;;;11.66;100.00;101800.59;4974253;28;20489;-84
2022/01/12 00:08:33;;;;;;;4.15;2.50;;;;;;;11.68;100.00;101796.34;4974354;28;20505;-79
2022/01/12 00:11:03;;;;;;;3.28;1.88;;;;;;;11.70;100.00;101805.09;4964264;28;20066;-76
2022/01/12 00:13:32;;;;;;;3.83;2.03;;;;;;;11.70;100.00;101786.94;4954409;29;20126;-85
2022/01/12 00:16:02;;;;;;;5.85;2.20;;;;;;;11.69;100.00;101770.50;4957409;28;20485;-83
2022/01/12 00:18:32;;;;;;;3.60;2.33;;;;;;;11.66;100.00;101774.66;4957501;28;20054;-85
2022/01/12 00:21:05;;;;;;;4.72;2.00;;;;;;;11.64;100.00;101789.31;4958770;28;20058;-83
2022/01/12 00:23:33;;;;;;;4.97;2.30;;;;;;;11.64;100.00;101794.47;4957312;28;20054;-83
2022/01/12 00:26:08;;;;;;;3.75;2.05;;;;;;;11.65;100.00;101802.31;4948764;28;20056;-83
2022/01/12 00:34:13;;;;;;;3.83;2.15;;;;;;;11.61;100.00;101776.19;4957857;28;20238;-83
2022/01/12 00:36:43;;;;;;;2.95;1.85;;;;;;;11.58;100.00;101781.25;4957969;29;20481;-83
2022/01/12 00:39:13;;;;;;;5.97;2.17;;;;;;;11.53;100.00;101763.81;4957209;29;20462;-83
2022/01/12 00:41:42;;;;;;;3.30;1.75;;;;;;;11.48;100.00;101775.69;4958711;29;20788;-79
2022/01/12 00:44:21;;;;;;;2.92;1.40;;;;;;;11.47;100.00;101773.91;4944048;29;20128;-82
2022/01/12 00:46:52;;;;;;;2.33;1.20;;;;;;;11.48;100.00;101773.09;4956654;29;20134;-81
2022/01/12 00:49:22;;;;;;;1.83;1.27;;;;;;;11.49;100.00;101781.75;4943185;29;20058;-81
2022/01/12 00:51:54;;;;;;;3.17;1.35;;;;;;;11.55;100.00;101781.13;4936930;29;20419;-81
2022/01/12 00:54:25;;;;;;;2.83;1.42;;;;;;;11.60;100.00;101770.13;4949940;29;20239;-81
2022/01/12 00:56:53;;;;;;;4.55;1.60;;;;;;;11.64;100.00;101776.34;4955720;29;20055;-81
2022/01/12 00:59:27;;;;;;;3.75;1.55;;;;;;;11.67;100.00;101784.22;4956677;29;20055;-81
2022/01/12 01:01:56;;;;;;;3.10;1.58;;;;;;;11.72;100.00;101790.47;4955832;29;20051;-83
2022/01/12 01:04:25;;;;;;;3.75;2.42;;;;;;;11.76;100.00;101787.19;4946891;29;20048;-81
2022/01/12 01:06:56;;;;;;;3.40;1.83;;;;;;;11.80;100.00;101770.94;4952075;29;20532;-83
2022/01/12 01:09:27;;;;;;;2.20;1.20;;;;;;;11.82;100.00;101758.94;4956335;29;20137;-81
2022/01/12 01:11:56;;;;;;;3.80;1.65;;;;;;;11.85;100.00;101748.69;4971533;28;20059;-82
2022/01/12 01:14:36;;;;;;;3.67;1.40;;;;;;;11.83;100.00;101752.91;4975546;28;20117;-82
2022/01/12 01:25:27;;;;;;;3.00;1.58;;;;;;;11.81;100.00;101754.56;4961946;28;20572;-82
2022/01/12 01:25:47;;;;;;;2.93;1.77;;;;;;;11.84;100.00;101765.06;4963464;28;20058;-82
2022/01/12 01:28:20;;;;;;;2.58;1.52;;;;;;;11.81;100.00;101762.34;4975095;28;20304;-83
2022/01/12 01:30:49;;;;;;;3.38;2.30;;;;;;;11.82;100.00;101769.31;4962366;28;20054;-83
2022/01/12 01:33:19;;;;;;;3.45;2.20;;;;;;;11.81;100.00;101771.84;4974745;28;20117;-82
2022/01/12 01:35:54;;;;;;;3.00;1.67;;;;;;;11.79;100.00;101774.34;4974928;28;20106;-83
2022/01/12 01:38:26;;;;;;;4.63;1.52;;;;;;;11.78;100.00;101780.38;4975866;28;20105;-83
2022/01/12 01:40:54;;;;;;;;;;;;;;;11.77;100.00;101776.00;4978950;28;20055;-83
2022/01/12 01:43:38;;;;;;;2.50;1.42;;;;;;;11.77;100.00;101768.22;4975051;28;19969;-83
2022/01/12 01:54:23;;;;;;;2.00;1.33;;;;;;;11.73;100.00;101755.97;4975808;28;20161;-83
2022/01/12 01:56:52;;;;;;;2.38;1.40;;;;;;;11.74;100.00;101744.75;4975175;28;20094;-82
2022/01/12 01:59:20;;;;;;;1.63;1.15;;;;;;;11.73;100.00;101756.84;4976248;28;20050;-84
2022/01/12 02:01:58;;;;;;;;;;;;;;;;;;;;;
2022/01/12 02:04:30;;;;;;;2.58;1.20;;;;;;;11.77;100.00;101757.84;4974907;28;20617;-85
2022/01/12 02:07:00;;;;;;;2.55;1.40;;;;;;;11.78;100.00;101748.38;4975721;28;20051;-84
2022/01/12 02:09:37;;;;;;;3.08;1.83;;;;;;;11.78;100.00;101751.84;4975550;28;20051;-81
2022/01/12 02:12:06;;;;;;;2.70;1.20;;;;;;;11.82;100.00;101761.53;4975285;28;20413;-82
2022/01/12 02:14:35;;;;;;;3.10;1.40;;;;;;;11.85;100.00;101760.75;4973890;28;20503;-82
2022/01/12 02:17:10;;;;;;;3.30;1.35;;;;;;;11.88;100.00;101756.59;4960692;28;20584;-80
2022/01/12 02:19:50;;;;;;;1.95;1.45;;;;;;;11.88;100.00;101746.22;4974486;28;20047;-83
2022/01/12 02:36:21;;;;;;;4.10;1.25;;;;;;;11.74;100.00;101724.03;4964320;28;20110;-81
2022/01/12 02:41:37;;;;;;;2.08;0.90;;;;;;;11.76;100.00;101739.66;4974839;28;20508;-81
2022/01/12 02:55:40;;;;;;;3.38;1.30;;;;;;;11.99;100.00;101733.69;4912050;28;20517;-83
2022/01/12 02:58:09;;;;;;;3.97;1.27;;;;;;;12.01;100.00;101733.78;4971447;28;20097;-82
2022/01/12 03:00:53;;;;;;;2.90;1.50;;;;;;;12.01;100.00;101725.97;4974920;28;20559;-82
2022/01/12 03:03:25;;;;;;;3.03;1.15;;;;;;;12.02;100.00;101722.56;4973972;28;20061;-81
2022/01/12 03:05:59;;;;;;;4.83;1.67;;;;;;;12.03;100.00;101727.81;4974384;28;20164;-83
2022/01/12 03:08:29;;;;;;;2.95;1.13;;;;;;;12.05;100.00;101727.84;4973778;28;20413;-82
2022/01/12 03:11:09;;;;;;;5.75;1.50;;;;;;;12.07;100.00;101719.34;4974618;28;20055;-82
2022/01/12 03:13:38;;;;;;;3.38;1.40;;;;;;;12.08;100.00;101718.50;4973715;28;20051;-82
2022/01/12 03:16:13;;;;;;;8.05;2.05;;;;;;;12.11;100.00;101716.00;4974061;28;20548;-86
2022/01/12 03:18:44;;;;;;;4.32;1.65;;;;;;;12.13;100.00;101718.66;4975068;28;20047;-82
2022/01/12 03:21:13;;;;;;;5.40;1.80;;;;;;;12.16;100.00;101729.16;4974649;28;20134;-84
2022/01/12 03:23:42;;;;;;;4.10;1.50;;;;;;;12.17;100.00;101725.75;4974712;28;20162;-83
2022/01/12 03:26:12;;;;;;;3.38;1.42;;;;;;;12.16;100.00;101716.19;4973379;28;20560;-82
2022/01/12 03:28:53;;;;;;;8.10;1.60;;;;;;;12.17;100.00;101730.06;4972934;28;20500;-85
2022/01/12 03:31:23;;;;;;;2.35;1.52;;;;;;;12.17;100.00;101728.34;4973499;28;20051;-83
2022/01/12 03:33:57;;;;;;;1.85;1.20;;;;;;;12.17;100.00;101723.16;4974867;28;20101;-81
2022/01/12 03:36:29;;;;;;;5.03;1.42;;;;;;;12.15;100.00;101720.50;4974837;28;20158;-83
2022/01/12 03:38:59;;;;;;;2.47;1.30;;;;;;;12.12;100.00;101710.00;4972781;28;20377;-84
2022/01/12 03:41:32;;;;;;;2.58;1.55;;;;;;;12.13;100.00;101724.72;4974900;28;20317;-81
2022/01/12 03:44:02;;;;;;;4.72;1.58;;;;;;;12.16;100.00;101723.97;4973460;28;20113;-81
2022/01/12 03:46:34;;;;;;;2.97;1.83;;;;;;;12.18;100.00;101724.03;4974871;28;20050;-83
2022/01/12 03:49:02;;;;;;;5.05;1.90;;;;;;;12.20;100.00;101722.38;4976185;28;20122;-84
2022/01/12 03:51:31;;;;;;;7.20;1.80;;;;;;;12.20;100.00;101728.44;4976779;28;20082;-84
2022/01/12 03:53:59;;;;;;;3.13;1.70;;;;;;;12.21;100.00;101719.84;4974903;28;20090;-82
2022/01/12 03:56:29;;;;;;;3.95;1.65;;;;;;;12.25;100.00;101724.31;4974634;28;20054;-84
2022/01/12 03:58:57;;;;;;;5.53;1.92;;;;;;;12.27;100.00;101725.25;4974908;28;20085;-87
2022/01/12 04:01:26;;;;;;;4.05;1.65;;;;;;;12.29;100.00;101734.00;4976618;28;20046;-87
2022/01/12 04:04:01;;;;;;;4.45;1.90;;;;;;;12.30;100.00;101740.06;4977241;28;20098;-85
2022/01/12 04:09:15;;;;;;;3.35;1.58;;;;;;;12.33;100.00;101740.19;4980258;28;20106;-85
2022/01/12 04:11:45;;;;;;;4.07;1.15;;;;;;;12.35;100.00;101755.00;4990561;28;20563;-83
2022/01/12 04:14:14;;;;;;;2.53;1.40;;;;;;;12.41;100.00;101740.47;4982563;28;20102;-86
2022/01/12 04:16:44;;;;;;;4.80;1.50;;;;;;;12.44;100.00;101750.97;4974666;28;20496;-82
2022/01/12 04:19:13;;;;;;;4.05;1.60;;;;;;;12.46;100.00;101742.44;4973032;28;20535;-84
2022/01/12 04:21:46;;;;;;;4.47;1.40;;;;;;;12.48;100.00;101755.44;4972557;28;20541;-85
2022/01/12 04:24:15;;;;;;;3.80;1.83;;;;;;;12.49;100.00;101768.50;4974165;28;20094;-81
2022/01/12 04:26:45;;;;;;;2.97;1.33;;;;;;;12.46;100.00;101763.19;4974753;28;20528;-86
2022/01/12 04:29:14;;;;;;;1.95;1.25;;;;;;;12.51;100.00;101765.97;4972901;28;20050;-82
2022/01/12 04:31:43;;;;;;;3.47;1.50;;;;;;;12.53;100.00;101759.13;4972655;28;20050;-84
2022/01/12 04:34:11;;;;;;;5.80;1.88;;;;;;;12.54;100.00;101758.28;4972795;28;20118;-82
2022/01/12 04:36:40;;;;;;;3.58;1.50;;;;;;;12.53;100.00;101756.53;4972786;28;20110;-81
2022/01/12 04:39:09;;;;;;;3.30;1.50;;;;;;;12.54;100.00;101756.56;4972663;28;20110;-81
2022/01/12 04:41:37;;;;;;;2.55;1.20;;;;;;;12.56;100.00;101760.09;4973464;28;20138;-81
2022/01/12 04:44:10;;;;;;;3.45;1.70;;;;;;;12.57;100.00;101738.53;4972164;28;20121;-82
2022/01/12 04:46:50;;;;;;;4.75;1.77;;;;;;;12.56;100.00;101728.97;4972187;28;20504;-79
2022/01/12 04:49:47;;;;;;;5.40;1.73;;;;;;;12.55;100.00;101726.28;4972324;28;20110;-83
2022/01/12 04:52:16;;;;;;;5.28;1.73;;;;;;;12.54;100.00;101729.72;4971694;28;20150;-81
2022/01/12 04:54:45;;;;;;;3.97;1.63;;;;;;;12.54;100.00;101720.22;4972552;28;20047;-82
2022/01/12 04:57:13;;;;;;;1.55;1.20;;;;;;;12.52;100.00;101728.78;4972299;28;20051;-81
2022/01/12 05:00:00;;;;;;;2.97;1.52;;;;;;;12.53;100.00;101730.56;4972228;28;20105;-84
2022/01/12 05:08:12;;;;;;;3.88;1.52;;;;;;;12.54;100.00;101727.13;4976170;28;20049;-80
2022/01/12 05:13:26;;;;;;;5.18;1.40;;;;;;;12.57;100.00;101733.34;4956197;28;20082;-80
2022/01/12 05:15:58;;;;;;;6.43;2.25;;;;;;;12.57;100.00;101724.63;4955984;28;20095;-77
2022/01/12 05:18:26;;;;;;;2.33;1.35;;;;;;;12.62;100.00;101733.50;4941043;28;20055;-80
2022/01/12 05:20:55;;;;;;;2.63;1.48;;;;;;;12.63;100.00;101729.19;4948010;28;20051;-79
2022/01/12 05:23:24;;;;;;;7.03;1.52;;;;;;;12.64;100.00;101741.31;4955402;28;20114;-82
2022/01/12 05:25:53;;;;;;;2.47;1.42;;;;;;;12.64;100.00;101734.41;4958507;28;20063;-78
2022/01/12 05:28:23;;;;;;;4.88;1.10;;;;;;;12.58;100.00;101737.69;4958457;28;20050;-77
2022/01/12 05:30:52;;;;;;;4.32;1.35;;;;;;;12.60;100.00;101724.78;4959398;28;20126;-80
2022/01/12 05:33:24;;;;;;;3.00;1.25;;;;;;;12.62;100.00;101725.72;4956233;28;20063;-79
2022/01/12 05:35:53;;;;;;;2.08;1.05;;;;;;;12.65;100.00;101728.41;4956581;28;20078;-78
2022/01/12 05:38:22;;;;;;;2.88;1.13;;;;;;;12.69;100.00;101735.50;4956575;28;20537;-78
2022/01/12 05:40:53;;;;;;;3.13;1.17;;;;;;;12.74;100.00;101736.53;4956341;28;20066;-81
2022/01/12 05:43:25;;;;;;;2.63;1.08;;;;;;;12.74;100.00;101728.75;4955662;28;20090;-79
2022/01/12 05:45:54;;;;;;;1.85;0.95;;;;;;;12.78;100.00;101734.91;4955671;28;20048;-79
2022/01/12 05:51:11;;;;;;;1.58;1.02;;;;;;;12.84;100.00;101745.53;4955602;28;20090;-79
2022/01/12 05:53:39;;;;;;;5.10;1.77;;;;;;;12.86;100.00;101737.81;4955335;28;20086;-78
2022/01/12 05:56:08;;;;;;;3.20;1.15;;;;;;;12.90;100.00;101734.50;4955183;28;20057;-79
2022/01/12 05:58:36;;;;;;;3.42;1.30;;;;;;;12.92;100.00;101744.13;4942024;28;20115;-77
2022/01/12 06:01:05;;;;;;;4.25;1.13;;;;;;;12.94;100.00;101736.34;4955021;28;20094;-77
2022/01/12 06:03:35;;;;;;;3.97;1.10;;;;;;;12.97;100.00;101736.47;4954915;28;20138;-77
2022/01/12 06:06:04;;;;;;;6.38;1.30;;;;;;;13.00;100.00;101728.78;4955359;28;20099;-77
2022/01/12 06:08:32;;;;;;;2.33;1.30;;;;;;;12.99;100.00;101740.91;4955157;28;20055;-77
2022/01/12 06:11:02;;;;;;;3.63;1.50;;;;;;;13.02;100.00;101754.81;4957680;28;20396;-77
2022/01/12 06:13:30;;;;;;;2.35;1.33;;;;;;;13.02;100.00;101750.50;4972765;28;20138;-80
2022/01/12 06:16:00;;;;;;;3.33;1.30;;;;;;;13.04;100.00;101755.78;4974481;28;20055;-78
2022/01/12 06:18:28;;;;;;;6.53;2.08;;;;;;;13.08;100.00;101761.13;4973926;28;20054;-77
2022/01/12 06:20:58;;;;;;;3.17;1.50;;;;;;;13.10;100.00;101761.16;4974424;28;20050;-77
2022/01/12 06:23:27;;;;;;;3.42;1.63;;;;;;;13.10;100.00;101769.88;4974199;28;20043;-77
2022/01/12 06:25:55;;;;;;;4.20;1.80;;;;;;;13.12;100.00;101762.97;4977701;28;20105;-77
2022/01/12 06:28:36;;;;;;;2.38;1.30;;;;;;;13.15;100.00;101763.09;4975249;28;20110;-77
2022/01/12 06:31:13;;;;;;;3.22;1.45;;;;;;;13.18;100.00;101768.41;4972669;28;20062;-76
2022/01/12 06:33:44;;;;;;;2.45;1.20;;;;;;;13.20;100.00;101771.94;4974307;28;20058;-77
2022/01/12 06:36:15;;;;;;;5.10;1.58;;;;;;;13.24;100.00;101772.03;4974825;28;20062;-78
2022/01/12 06:38:44;;;;;;;3.80;1.58;;;;;;;13.25;100.00;101768.63;4974309;28;20050;-76
2022/01/12 06:41:14;;;;;;;3.45;1.23;;;;;;;13.27;100.00;101761.78;4973736;28;20047;-78
2022/01/12 06:43:43;;;;;;;3.50;1.23;;;;;;;13.28;100.00;101768.75;4974087;28;20049;-77
2022/01/12 06:46:14;;;;;;;3.03;1.40;;;;;;;13.28;100.00;101768.75;4973629;28;20051;-78
2022/01/12 06:48:42;;;;;;;2.45;1.20;;;;;;;13.28;100.00;101777.44;4974343;28;20051;-78
2022/01/12 06:51:11;;;;;;;2.88;1.38;;;;;;;13.30;100.00;101777.50;4973892;28;20058;-76
2022/01/12 06:53:41;;;;;;;2.65;1.17;;;;;;;13.31;100.00;101774.97;4964564;28;20051;-77
2022/01/12 06:56:10;;;;;;;2.45;1.23;;;;;;;13.34;100.00;101780.25;4969587;28;20160;-79
2022/01/12 06:58:38;;;;;;;2.75;1.40;;;;;;;13.36;100.00;101798.50;4973142;28;20066;-77
2022/01/12 07:01:07;;;;;;;3.60;1.70;;;;;;;13.37;100.00;101789.88;4973595;28;20511;-77
2022/01/12 07:03:35;;;;;;;3.88;1.38;;;;;;;13.35;100.00;101775.94;4959829;28;20042;-78
2022/01/12 07:06:04;;;;;;;3.05;1.45;;;;;;;13.35;100.00;101779.44;4973579;28;20062;-77
2022/01/12 07:08:34;;;;;;;6.28;1.40;;;;;;;13.38;100.00;101781.25;4973519;28;20051;-78
2022/01/12 07:11:05;;;;;;;2.63;1.33;;;;;;;13.38;100.00;101794.25;4965403;28;20509;-77
2022/01/12 07:13:33;;;;;;;3.67;1.55;;;;;;;13.37;100.00;101795.06;4969113;28;20508;-78
2022/01/12 07:16:02;;;;;;;3.88;1.27;;;;;;;13.39;100.00;101803.81;4961221;28;20515;-78
2022/01/12 07:18:31;;;;;;;2.75;1.23;;;;;;;13.39;100.00;101803.81;4953586;28;20524;-76
2022/01/12 07:21:00;;;;;;;4.00;1.73;;;;;;;13.39;100.00;101809.00;4954235;28;20067;-76
2022/01/12 07:23:29;;;;;;;3.55;1.77;;;;;;;13.40;100.00;101806.47;4958328;28;20039;-76
2022/01/12 07:25:58;;;;;;;2.38;1.17;;;;;;;13.39;99.96;101796.00;4963506;28;20509;-78
2022/01/12 07:28:28;;;;;;;2.70;1.30;;;;;;;13.38;99.33;101789.94;4953547;28;20472;-76
2022/01/12 07:30:56;;;;;;;2.35;1.02;;;;;;;13.35;100.00;101791.53;4961570;28;20141;-76
2022/01/12 07:33:25;;;;;;;4.82;0.90;;;;;;;13.35;100.00;101792.44;4958537;28;20051;-76
2022/01/12 07:35:54;;;;;;;1.63;0.90;;;;;;;13.36;100.00;101798.50;4967906;28;20454;-76
2022/01/12 07:38:22;;;;;;;2.88;0.95;;;;;;;13.36;100.00;101788.13;4953204;28;20087;-76
2022/01/12 07:40:51;;;;;;;3.75;1.27;;;;;;;13.37;100.00;101789.88;4952903;28;20093;-76
2022/01/12 07:43:19;;;;;;;1.17;0.80;;;;;;;13.35;98.52;101786.31;4961415;28;20107;-76
2022/01/12 07:45:50;;;;;;;3.20;1.00;;;;;;;13.29;99.39;101778.34;4957710;28;20058;-78
2022/01/12 07:48:18;;;;;;;2.70;1.08;;;;;;;13.34;99.38;101784.56;4953404;28;20078;-78
2022/01/12 07:50:46;;;;;;;3.65;1.35;;;;;;;13.32;100.00;101775.84;4966698;28;20123;-76
2022/01/12 07:53:15;;;;;;;1.85;1.02;;;;;;;13.31;98.77;101768.84;4972470;28;20050;-77
2022/01/12 07:55:43;;;;;;;2.72;1.00;;;;;;;13.29;97.86;101761.03;4961212;28;20130;-76
2022/01/12 07:58:12;;;;;;;0.98;0.70;;;;;;;13.28;99.01;101759.22;4966959;28;20114;-77
2022/01/12 08:00:41;;;;;;;1.35;0.93;;;;;;;13.27;98.82;101756.56;4953666;28;20098;-77
2022/01/12 08:03:12;;;;;;;1.67;0.88;;;;;;;13.25;99.50;101753.91;4966266;28;20051;-77
2022/01/12 08:05:40;;;;;;;2.55;1.25;;;;;;;13.24;99.88;101759.03;4960321;28;20046;-77
2022/01/12 08:08:09;;;;;;;2.50;0.95;;;;;;;13.21;100.00;101763.31;4957787;28;20051;-78
2022/01/12 08:10:38;;;;;;;2.85;0.93;;;;;;;13.19;99.79;101770.19;4953384;28;20040;-77
2022/01/12 08:13:06;;;;;;;3.40;0.88;;;;;;;13.18;100.00;101784.00;4969502;28;20055;-76
2022/01/12 08:15:34;;;;;;;3.38;1.10;;;;;;;13.17;100.00;101790.03;4971546;28;20050;-77
2022/01/12 08:18:03;;;;;;;1.00;0.77;;;;;;;13.15;100.00;101796.91;4974655;28;20104;-77
2022/01/12 08:20:33;;;;;;;2.08;0.80;;;;;;;13.12;100.00;101791.56;4961436;28;20042;-76
2022/01/12 08:23:02;;;;;;;1.90;0.70;;;;;;;13.09;100.00;101803.59;4960467;28;20114;-78
2022/01/12 08:25:30;;;;;;;2.50;0.80;;;;;;;13.06;100.00;101799.16;4959167;28;20058;-76
2022/01/12 08:27:59;;;;;;;1.30;0.93;;;;;;;13.04;100.00;101797.34;4972569;28;20047;-76
2022/01/12 08:30:31;;;;;;;4.00;1.13;;;;;;;13.01;100.00;101782.53;4972009;28;20114;-76
2022/01/12 08:32:59;;;;;;;1.75;0.88;;;;;;;13.04;100.00;101784.34;4972120;28;20488;-76
2022/01/12 08:35:28;;;;;;;3.78;0.98;;;;;;;13.05;100.00;101792.19;4972078;28;20129;-76
2022/01/12 08:37:59;;;;;;;1.35;0.80;;;;;;;13.08;100.00;101802.69;4975966;28;20511;-77
2022/01/12 08:40:28;;;;;;;1.67;0.77;;;;;;;13.11;100.00;101802.81;4975752;28;20055;-76
2022/01/12 08:42:56;;;;;;;2.83;1.08;;;;;;;13.10;100.00;101795.84;4975770;28;20142;-77
2022/01/12 08:45:25;;;;;;;1.98;0.88;;;;;;;13.07;100.00;101790.53;4975657;28;20043;-78
2022/01/12 08:47:53;;;;;;;1.85;0.77;;;;;;;13.05;100.00;101786.09;4962840;28;20106;-78
2022/01/12 08:50:22;;;;;;;2.55;1.10;;;;;;;13.06;100.00;101783.56;4975855;28;20055;-77
2022/01/12 08:52:51;;;;;;;1.25;0.60;;;;;;;13.05;100.00;101781.78;4975479;28;20129;-77
2022/01/12 08:55:23;;;;;;;1.30;0.82;;;;;;;13.03;100.00;101788.63;4976114;28;20055;-78
2022/01/12 08:57:52;;;;;;;1.17;0.73;;;;;;;13.03;100.00;101783.44;4975910;28;20110;-77
2022/01/12 09:00:21;;;;;;;1.27;0.70;;;;;;;13.05;100.00;101784.38;4977454;28;20055;-76
2022/01/12 09:02:50;;;;;;;1.55;0.90;;;;;;;13.05;100.00;101794.78;4974830;28;20114;-77
2022/01/12 09:05:18;;;;;;;1.95;1.05;;;;;;;13.06;100.00;101791.38;4976060;28;20055;-77
2022/01/12 09:07:47;;;;;;;3.30;0.93;;;;;;;13.10;100.00;101805.34;4975915;28;20130;-77
2022/01/12 09:10:15;;;;;;;2.42;0.98;;;;;;;13.12;100.00;101804.56;4975528;28;20043;-76
2022/01/12 09:12:45;;;;;;;1.38;0.80;;;;;;;13.13;100.00;101800.28;4976667;28;20118;-76
2022/01/12 09:15:15;;;;;;;2.78;1.00;;;;;;;13.14;100.00;101807.22;4977431;28;20077;-77
2022/01/12 09:17:46;;;;;;;3.60;1.10;;;;;;;13.10;100.00;101801.06;4972858;28;20046;-77
2022/01/12 09:20:15;;;;;;;4.65;1.48;;;;;;;13.06;100.00;101798.28;4975190;28;20047;-78
2022/01/12 09:22:43;;;;;;;3.60;1.00;;;;;;;13.01;100.00;101790.31;4974856;28;20539;-78
2022/01/12 09:25:12;;;;;;;2.53;1.02;;;;;;;12.96;100.00;101782.38;4974697;28;20097;-78
2022/01/12 09:27:41;;;;;;;2.45;1.08;;;;;;;12.93;100.00;101781.34;4975605;28;20062;-77
2022/01/12 09:30:13;;;;;;;0.80;0.57;;;;;;;12.84;100.00;101768.03;4974445;28;20054;-76
2022/01/12 09:32:42;;;;;;;1.20;0.77;;;;;;;12.85;100.00;101778.50;4974754;28;20078;-76
2022/01/12 09:35:12;;;;;;;2.13;0.73;;;;;;;12.82;100.00;101767.97;4974987;28;20505;-76
2022/01/12 09:37:40;;;;;;;1.83;0.77;;;;;;;12.80;100.00;101761.84;4974775;28;20050;-75
2022/01/12 09:40:10;;;;;;;2.25;0.60;;;;;;;12.79;100.00;101757.47;4974717;28;20058;-76
2022/01/12 09:42:39;;;;;;;4.00;1.00;;;;;;;12.77;99.34;101756.53;4974629;28;20118;-76
2022/01/12 09:45:14;;;;;;;1.15;0.88;;;;;;;12.74;98.61;101754.72;4974517;28;20050;-76
2022/01/12 09:47:45;;;;;;;1.08;0.70;;;;;;;12.71;99.39;101749.41;4974407;28;20551;-76
2022/01/12 09:50:16;;;;;;;0.75;0.60;;;;;;;12.70;98.99;101750.22;4975083;28;20114;-77
2022/01/12 09:52:45;;;;;;;2.70;0.93;;;;;;;12.71;98.25;101758.91;4974207;28;20061;-77
2022/01/12 09:55:13;;;;;;;2.53;0.95;;;;;;;12.73;97.17;101758.13;4974386;28;20059;-77
2022/01/12 09:57:42;;;;;;;2.05;0.93;;;;;;;12.75;97.36;101761.66;4974745;28;20474;-77
2022/01/12 10:00:16;;;;;;;2.38;0.85;;;;;;;12.77;96.73;101769.53;4975005;28;20074;-77
2022/01/12 10:02:47;;;;;;;1.85;0.80;;;;;;;12.76;96.75;101776.44;4975148;28;20488;-77
2022/01/12 10:05:16;;;;;;;1.70;0.82;;;;;;;12.81;96.67;101773.13;4974273;28;20054;-78
2022/01/12 10:07:44;;;;;;;1.58;0.85;;;;;;;12.78;95.26;101764.41;4974768;28;20058;-78
2022/01/12 10:10:15;;;;;;;2.35;0.82;;;;;;;12.81;94.68;101747.16;4974271;28;20105;-76
2022/01/12 10:12:54;;;;;;;2.15;1.00;;;;;;;12.80;92.42;101754.03;4978490;28;20087;-76
2022/01/12 10:15:25;;;;;;;3.65;1.10;;;;;;;12.82;94.38;101767.97;4974452;28;20039;-77
2022/01/12 10:17:57;;;;;;;1.85;0.98;;;;;;;12.84;93.31;101781.03;4972388;28;20133;-77
2022/01/12 10:20:26;;;;;;;2.45;1.13;;;;;;;12.83;92.25;101776.63;4971971;28;20046;-76
2022/01/12 10:23:00;;;;;;;3.67;1.27;;;;;;;12.84;91.80;101770.63;4973733;28;20516;-77
2022/01/12 10:25:31;;;;;;;3.83;1.00;;;;;;;12.85;91.69;101770.69;4974168;28;20102;-78
2022/01/12 10:28:00;;;;;;;6.03;2.92;;;;;;;12.82;90.30;101761.91;4974460;28;20058;-76
2022/01/12 10:30:32;;;;;;;2.25;1.00;;;;;;;12.87;89.69;101783.72;4960442;28;20493;-76
2022/01/12 10:33:04;;;;;;;2.80;1.05;;;;;;;12.88;88.76;101780.31;4974036;28;20058;-77
2022/01/12 10:35:36;;;;;;;1.25;0.82;;;;;;;12.88;88.03;101773.41;4974078;28;20496;-77
2022/01/12 10:38:09;;;;;;;5.97;1.30;;;;;;;12.90;88.52;101778.66;4973909;28;20051;-77
2022/01/12 10:40:49;;;;;;;2.65;1.02;;;;;;;12.92;88.75;101777.00;4973864;28;20142;-77
2022/01/12 10:43:32;;;;;;;3.28;1.15;;;;;;;12.93;89.16;101786.56;4973828;28;20105;-78
2022/01/12 10:46:02;;;;;;;1.73;1.00;;;;;;;12.95;89.20;101777.09;4973767;28;20047;-78
2022/01/12 10:48:45;;;;;;;1.63;0.93;;;;;;;12.94;90.03;101776.22;4974354;28;20046;-77
2022/01/12 10:51:16;;;;;;;2.25;1.55;;;;;;;12.97;90.14;101780.66;4960792;28;20511;-77
2022/01/12 10:53:45;;;;;;;1.63;0.98;;;;;;;12.98;90.25;101785.00;4973886;28;20054;-77
2022/01/12 10:56:15;;;;;;;1.30;0.85;;;;;;;12.98;90.81;101785.88;4974238;28;20051;-77
2022/01/12 10:58:46;;;;;;;1.38;0.88;;;;;;;12.97;91.84;101778.03;4965151;28;20113;-78
2022/01/12 11:01:16;;;;;;;2.33;1.00;;;;;;;12.96;92.83;101782.38;4975238;28;20058;-78
2022/01/12 11:03:47;;;;;;;1.00;0.80;;;;;;;12.96;92.89;101776.25;4972094;28;20831;-78
2022/01/12 11:06:16;;;;;;;1.13;0.80;;;;;;;12.97;94.53;101781.53;4973197;28;20055;-78
2022/01/12 11:08:48;;;;;;;1.85;0.90;;;;;;;12.96;94.43;101778.84;4975322;28;20051;-77
2022/01/12 11:11:18;;;;;;;1.67;0.80;;;;;;;12.95;95.62;101784.91;4975356;28;20066;-77
2022/01/12 11:13:48;;;;;;;3.28;0.82;;;;;;;12.91;96.09;101773.50;4973860;28;20501;-77
2022/01/12 11:16:20;;;;;;;1.15;0.73;;;;;;;12.92;95.69;101779.59;4973082;28;20043;-77
2022/01/12 11:18:52;;;;;;;1.10;0.77;;;;;;;12.89;96.30;101782.06;4972720;28;20078;-77
2022/01/12 11:21:28;;;;;;;1.98;1.10;;;;;;;12.86;94.94;101764.66;4972850;28;20300;-77
2022/01/12 11:23:59;;;;;;;1.02;0.90;;;;;;;12.86;96.45;101768.97;4963382;28;20057;-78
2022/01/12 11:26:29;;;;;;;1.50;0.90;;;;;;;12.84;96.29;101766.31;4960179;28;20043;-78
2022/01/12 11:28:58;;;;;;;2.25;0.88;;;;;;;12.82;96.40;101756.69;4972002;28;20055;-78
2022/01/12 11:31:29;;;;;;;1.80;1.00;;;;;;;12.79;95.13;101760.94;4971926;28;20089;-77
2022/01/12 11:33:59;;;;;;;1.45;0.75;;;;;;;12.77;95.41;101760.00;4972127;28;20465;-76
2022/01/12 11:36:29;;;;;;;1.42;0.90;;;;;;;12.74;94.46;101749.53;4972611;28;20050;-77
2022/01/12 11:39:06;;;;;;;2.20;1.00;;;;;;;12.71;96.02;101738.13;4971781;28;20141;-78
2022/01/12 11:41:36;;;;;;;2.38;1.10;;;;;;;12.70;100.00;101739.84;4972597;28;20505;-77
2022/01/12 11:44:07;;;;;;;2.45;1.13;;;;;;;12.68;95.37;101743.22;4971827;28;20141;-78
2022/01/12 11:46:48;;;;;;;2.40;0.80;;;;;;;12.65;93.60;101731.00;4971640;28;20101;-77
2022/01/12 11:49:29;;;;;;;3.75;1.00;;;;;;;12.60;94.31;101723.88;4972281;28;20141;-78
2022/01/12 11:51:58;;;;;;;1.42;0.90;;;;;;;12.53;94.25;101717.59;4972122;28;20098;-76
2022/01/12 11:54:33;;;;;;;1.48;0.80;;;;;;;12.50;91.65;101728.72;4971495;28;20062;-78
2022/01/12 11:57:03;;;;;;;1.92;0.90;;;;;;;12.51;91.77;101717.53;4972416;28;20504;-76
2022/01/12 11:59:33;;;;;;;1.05;0.80;;;;;;;12.50;91.19;101707.06;4972025;28;20508;-76
2022/01/12 12:02:10;;;;;;;2.05;0.80;;;;;;;12.49;90.98;101716.56;4971354;28;20587;-77
2022/01/12 12:04:42;;;;;;;2.55;0.75;;;;;;;12.49;91.56;101706.19;4972165;28;20058;-76
2022/01/12 12:07:14;;;;;;;1.98;0.60;;;;;;;12.50;91.48;101699.28;4974525;28;20089;-76
2022/01/12 12:09:44;;;;;;;2.28;1.00;;;;;;;12.49;91.63;101700.13;4971945;28;20050;-79
2022/01/12 12:12:17;;;;;;;1.42;0.75;;;;;;;12.50;93.73;101701.88;4976315;28;20063;-78
2022/01/12 12:14:47;;;;;;;1.50;0.90;;;;;;;12.51;93.48;101701.94;4975598;28;20062;-78
2022/01/12 12:17:17;;;;;;;1.98;1.05;;;;;;;12.52;93.82;101692.44;4975921;28;20081;-77
2022/01/12 12:19:47;;;;;;;2.40;0.98;;;;;;;12.51;99.18;101693.28;4975039;28;20082;-78
2022/01/12 12:22:19;;;;;;;1.48;0.70;;;;;;;12.48;99.93;101693.16;4975594;28;20114;-78
2022/01/12 12:24:53;;;;;;;1.88;0.80;;;;;;;12.46;98.76;101692.22;4975381;28;20050;-77
2022/01/12 12:27:23;;;;;;;1.88;0.70;;;;;;;12.46;95.83;101695.72;4961879;28;20047;-78
2022/01/12 12:29:53;;;;;;;1.85;0.88;;;;;;;12.48;93.50;101704.41;4975449;28;20046;-78
2022/01/12 12:32:33;;;;;;;1.98;0.93;;;;;;;12.51;96.06;101699.34;4975400;28;20061;-77
2022/01/12 12:35:06;;;;;;;5.35;0.98;;;;;;;12.51;96.72;101685.50;4976804;28;20484;-77
2022/01/12 12:37:41;;;;;;;1.38;0.80;;;;;;;12.52;95.94;101687.25;4975883;28;20047;-77
2022/01/12 12:40:21;;;;;;;1.00;0.70;;;;;;;12.51;95.93;101688.09;4977103;28;20436;-77